sensor_id;sensor_type;location;lat;lon;timestamp;pressure;altitude;pressure_sealevel;temperature;humidity
5879;BME280;2965;42.640;23.370;2023-02-18T05:01:27;95220.66;;;2.43;100.00
5879;BME280;2965;42.640;23.370;2023-02-18T05:03:53;95218.31;;;2.51;100.00
5879;BME280;2965;42.640;23.370;2023-02-18T05:06:18;95223.97;;;2.45;100.00
5879;BME280;2965;42.640;23.370;2023-02-18T05:08:43;95239.44;;;2.22;100.00
5879;BME280;2965;42.640;23.370;2023-02-18T05:11:09;95246.72;;;2.28;100.00
5879;BME280;2965;42.640;23.370;2023-02-18T05:13:34;95239.88;;;2.16;100.00
5879;BME280;2965;42.640;23.370;2023-02-18T05:16:00;95247.16;;;2.11;100.00
5879;BME280;2965;42.640;23.370;2023-02-18T05:18:25;95242.53;;;1.92;100.00
5879;BME280;2965;42.640;23.370;2023-02-18T05:20:50;95240.97;;;1.79;100.00
5879;BME280;2965;42.640;23.370;2023-02-18T05:23:16;95227.03;;;1.57;100.00
5879;BME280;2965;42.640;23.370;2023-02-18T05:25:44;95227.25;;;1.78;100.00
5879;BME280;2965;42.640;23.370;2023-02-18T05:28:09;95241.50;;;2.06;100.00
5879;BME280;2965;42.640;23.370;2023-02-18T05:30:35;95221.84;;;2.27;100.00
5879;BME280;2965;42.640;23.370;2023-02-18T05:33:00;95222.69;;;2.39;100.00
5879;BME280;2965;42.640;23.370;2023-02-18T05:35:25;95212.09;;;2.42;100.00
5879;BME280;2965;42.640;23.370;2023-02-18T05:37:51;95208.47;;;2.45;100.00
5879;BME280;2965;42.640;23.370;2023-02-18T05:40:16;95201.19;;;2.50;100.00
5879;BME280;2965;42.640;23.370;2023-02-18T05:42:41;95209.16;;;2.69;100.00
5879;BME280;2965;42.640;23.370;2023-02-18T05:45:07;95216.00;;;2.70;100.00
5879;BME280;2965;42.640;23.370;2023-02-18T05:47:33;95203.19;;;2.80;100.00
5879;BME280;2965;42.640;23.370;2023-02-18T05:49:58;95214.31;;;2.92;100.00
5879;BME280;2965;42.640;23.370;2023-02-18T05:52:24;95222.00;;;3.14;100.00
5879;BME280;2965;42.640;23.370;2023-02-18T05:54:49;95217.06;;;3.34;100.00
5879;BME280;2965;42.640;23.370;2023-02-18T05:57:14;95220.31;;;3.36;100.00
5879;BME280;2965;42.640;23.370;2023-02-18T05:59:40;95229.31;;;3.09;100.00
5879;BME280;2965;42.640;23.370;2023-02-18T06:02:06;95234.75;;;3.06;100.00
5879;BME280;2965;42.640;23.370;2023-02-18T06:04:31;95243.91;;;2.99;100.00
5879;BME280;2965;42.640;23.370;2023-02-18T06:06:57;95249.44;;;3.06;100.00
5879;BME280;2965;42.640;23.370;2023-02-18T06:09:22;95252.13;;;3.04;100.00
5879;BME280;2965;42.640;23.370;2023-02-18T06:11:48;95244.22;;;3.17;100.00
5879;BME280;2965;42.640;23.370;2023-02-18T06:14:13;95242.91;;;3.22;100.00
5879;BME280;2965;42.640;23.370;2023-02-18T06:16:38;95236.72;;;3.14;100.00
5879;BME280;2965;42.640;23.370;2023-02-18T06:19:04;95230.41;;;3.07;100.00
5879;BME280;2965;42.640;23.370;2023-02-18T06:21:29;95243.94;;;2.76;100.00
5879;BME280;2965;42.640;23.370;2023-02-18T06:23:54;95245.56;;;2.77;100.00
5879;BME280;2965;42.640;23.370;2023-02-18T06:26:20;95230.97;;;2.88;100.00
5879;BME280;2965;42.640;23.370;2023-02-18T06:28:45;95235.06;;;3.13;100.00
5879;BME280;2965;42.640;23.370;2023-02-18T06:31:11;95226.56;;;3.33;100.00
5879;BME280;2965;42.640;23.370;2023-02-18T06:33:36;95226.44;;;3.46;100.00
5879;BME280;2965;42.640;23.370;2023-02-18T06:36:05;95226.56;;;3.65;100.00
5879;BME280;2965;42.640;23.370;2023-02-18T06:38:32;95220.66;;;3.74;100.00
5879;BME280;2965;42.640;23.370;2023-02-18T06:40:58;95206.75;;;3.75;100.00
5879;BME280;2965;42.640;23.370;2023-02-18T06:43:23;95210.06;;;3.98;100.00
5879;BME280;2965;42.640;23.370;2023-02-18T06:45:49;95211.66;;;3.90;100.00
5879;BME280;2965;42.640;23.370;2023-02-18T06:48:14;95207.81;;;4.05;100.00
5879;BME280;2965;42.640;23.370;2023-02-18T06:50:41;95218.53;;;4.21;100.00
5879;BME280;2965;42.640;23.370;2023-02-18T06:53:06;95222.94;;;4.30;100.00
5879;BME280;2965;42.640;23.370;2023-02-18T06:55:31;95212.13;;;4.46;100.00
5879;BME280;2965;42.640;23.370;2023-02-18T06:57:57;95213.78;;;4.47;98.66
5879;BME280;2965;42.640;23.370;2023-02-18T07:00:22;95218.97;;;4.47;96.90
5879;BME280;2965;42.640;23.370;2023-02-18T07:02:48;95215.19;;;4.61;94.68
5879;BME280;2965;42.640;23.370;2023-02-18T07:05:13;95225.13;;;4.56;95.25
5879;BME280;2965;42.640;23.370;2023-02-18T07:07:38;95218.22;;;4.66;100.00
5879;BME280;2965;42.640;23.370;2023-02-18T07:10:04;95224.00;;;4.79;99.98
5879;BME280;2965;42.640;23.370;2023-02-18T07:12:30;95207.13;;;4.95;99.20
5879;BME280;2965;42.640;23.370;2023-02-18T07:14:55;95220.25;;;5.03;97.14
5879;BME280;2965;42.640;23.370;2023-02-18T07:17:21;95216.75;;;5.23;96.66
5879;BME280;2965;42.640;23.370;2023-02-18T07:19:46;95212.41;;;5.34;96.03
5879;BME280;2965;42.640;23.370;2023-02-18T07:22:11;95213.22;;;5.34;95.01
5879;BME280;2965;42.640;23.370;2023-02-18T07:24:37;95204.09;;;5.49;100.00
5879;BME280;2965;42.640;23.370;2023-02-18T07:27:02;95195.63;;;5.57;100.00
5879;BME280;2965;42.640;23.370;2023-02-18T07:29:28;95203.28;;;5.68;100.00
5879;BME280;2965;42.640;23.370;2023-02-18T07:31:53;95200.41;;;5.91;90.33
5879;BME280;2965;42.640;23.370;2023-02-18T07:34:19;95198.25;;;5.96;86.95
5879;BME280;2965;42.640;23.370;2023-02-18T07:36:44;95206.97;;;6.14;86.28
5879;BME280;2965;42.640;23.370;2023-02-18T07:39:10;95211.31;;;6.23;86.37
5879;BME280;2965;42.640;23.370;2023-02-18T07:41:35;95217.88;;;6.27;86.40
5879;BME280;2965;42.640;23.370;2023-02-18T07:44:00;95224.69;;;6.48;85.00
5879;BME280;2965;42.640;23.370;2023-02-18T07:46:26;95231.25;;;6.52;82.48
5879;BME280;2965;42.640;23.370;2023-02-18T07:48:51;95230.44;;;6.51;81.99
5879;BME280;2965;42.640;23.370;2023-02-18T07:51:17;95252.44;;;6.57;81.74
5879;BME280;2965;42.640;23.370;2023-02-18T07:53:42;95244.28;;;6.79;80.89
5879;BME280;2965;42.640;23.370;2023-02-18T07:56:07;95246.72;;;6.91;79.73
5879;BME280;2965;42.640;23.370;2023-02-18T07:58:35;95244.50;;;6.96;78.57
5879;BME280;2965;42.640;23.370;2023-02-18T08:01:05;95241.03;;;6.77;76.28
5879;BME280;2965;42.640;23.370;2023-02-18T08:03:31;95246.63;;;6.82;76.17
5879;BME280;2965;42.640;23.370;2023-02-18T08:05:58;95224.75;;;7.03;75.86
5879;BME280;2965;42.640;23.370;2023-02-18T08:08:26;95229.91;;;7.13;75.49
5879;BME280;2965;42.640;23.370;2023-02-18T08:10:54;95224.66;;;7.22;75.41
5879;BME280;2965;42.640;23.370;2023-02-18T08:13:20;95228.69;;;7.34;78.21
5879;BME280;2965;42.640;23.370;2023-02-18T08:15:46;95229.38;;;7.37;78.05
5879;BME280;2965;42.640;23.370;2023-02-18T08:18:22;95230.97;;;7.65;77.36
5879;BME280;2965;42.640;23.370;2023-02-18T08:20:48;95227.69;;;7.63;76.56
5879;BME280;2965;42.640;23.370;2023-02-18T08:23:15;95222.34;;;7.65;76.07
5879;BME280;2965;42.640;23.370;2023-02-18T08:25:45;95208.38;;;7.83;76.76
5879;BME280;2965;42.640;23.370;2023-02-18T08:28:11;95216.16;;;8.01;71.97
5879;BME280;2965;42.640;23.370;2023-02-18T08:30:36;95205.31;;;8.06;69.16
5879;BME280;2965;42.640;23.370;2023-02-18T08:33:01;95212.78;;;8.09;68.62
5879;BME280;2965;42.640;23.370;2023-02-18T08:35:27;95207.66;;;8.17;67.71
5879;BME280;2965;42.640;23.370;2023-02-18T08:37:52;95205.47;;;8.30;69.95
5879;BME280;2965;42.640;23.370;2023-02-18T08:40:18;95204.38;;;8.59;69.61
5879;BME280;2965;42.640;23.370;2023-02-18T08:42:43;95201.16;;;8.65;66.69
5879;BME280;2965;42.640;23.370;2023-02-18T08:45:08;95198.94;;;8.78;67.33
5879;BME280;2965;42.640;23.370;2023-02-18T08:47:34;95188.03;;;8.83;68.16
5879;BME280;2965;42.640;23.370;2023-02-18T08:49:59;95173.91;;;9.02;67.30
5879;BME280;2965;42.640;23.370;2023-02-18T08:52:25;95197.06;;;8.97;68.37
5879;BME280;2965;42.640;23.370;2023-02-18T08:54:51;95202.34;;;9.13;68.54
5879;BME280;2965;42.640;23.370;2023-02-18T08:57:16;95197.16;;;9.21;67.51
5879;BME280;2965;42.640;23.370;2023-02-18T08:59:42;95196.31;;;9.13;67.21
5879;BME280;2965;42.640;23.370;2023-02-18T09:02:10;95201.66;;;9.03;66.36
5879;BME280;2965;42.640;23.370;2023-02-18T09:04:37;95200.34;;;8.99;65.07
5879;BME280;2965;42.640;23.370;2023-02-18T09:07:02;95202.72;;;9.26;65.98
5879;BME280;2965;42.640;23.370;2023-02-18T09:09:28;95211.28;;;9.53;66.34
5879;BME280;2965;42.640;23.370;2023-02-18T09:11:53;95212.63;;;9.65;64.80
5879;BME280;2965;42.640;23.370;2023-02-18T09:14:18;95222.13;;;9.74;62.45
5879;BME280;2965;42.640;23.370;2023-02-18T09:16:44;95222.13;;;9.91;62.08
5879;BME280;2965;42.640;23.370;2023-02-18T09:19:09;95227.81;;;9.78;60.13
5879;BME280;2965;42.640;23.370;2023-02-18T09:21:34;95203.16;;;9.80;59.12
5879;BME280;2965;42.640;23.370;2023-02-18T09:24:00;95202.53;;;9.78;60.18
5879;BME280;2965;42.640;23.370;2023-02-18T09:26:26;95205.13;;;9.86;59.74
5879;BME280;2965;42.640;23.370;2023-02-18T09:28:53;95205.13;;;9.95;60.47
5879;BME280;2965;42.640;23.370;2023-02-18T09:31:22;95212.81;;;9.88;59.89
5879;BME280;2965;42.640;23.370;2023-02-18T09:33:51;95200.59;;;10.38;57.98
5879;BME280;2965;42.640;23.370;2023-02-18T09:36:17;95179.56;;;10.78;57.51
5879;BME280;2965;42.640;23.370;2023-02-18T09:38:43;95174.53;;;11.16;57.24
5879;BME280;2965;42.640;23.370;2023-02-18T09:41:26;95184.22;;;11.47;55.21
5879;BME280;2965;42.640;23.370;2023-02-18T09:44:01;95168.03;;;11.43;52.86
5879;BME280;2965;42.640;23.370;2023-02-18T09:46:31;95170.31;;;11.69;54.17
5879;BME280;2965;42.640;23.370;2023-02-18T09:49:01;95173.50;;;11.56;52.30
5879;BME280;2965;42.640;23.370;2023-02-18T09:51:27;95173.19;;;12.05;54.42
5879;BME280;2965;42.640;23.370;2023-02-18T09:53:53;95174.22;;;12.19;51.88
5879;BME280;2965;42.640;23.370;2023-02-18T09:56:28;95181.38;;;12.25;51.58
5879;BME280;2965;42.640;23.370;2023-02-18T09:58:55;95176.72;;;12.35;50.86
5879;BME280;2965;42.640;23.370;2023-02-18T10:01:35;95176.63;;;12.44;50.97
5879;BME280;2965;42.640;23.370;2023-02-18T10:04:09;95180.72;;;12.46;50.25
5879;BME280;2965;42.640;23.370;2023-02-18T10:06:37;95169.81;;;12.34;50.67
5879;BME280;2965;42.640;23.370;2023-02-18T10:09:14;95166.66;;;12.39;50.38
5879;BME280;2965;42.640;23.370;2023-02-18T10:11:42;95170.41;;;12.59;50.42
5879;BME280;2965;42.640;23.370;2023-02-18T10:14:11;95167.44;;;13.07;49.96
5879;BME280;2965;42.640;23.370;2023-02-18T10:16:38;95155.19;;;13.14;48.24
5879;BME280;2965;42.640;23.370;2023-02-18T10:19:20;95160.16;;;13.09;47.86
5879;BME280;2965;42.640;23.370;2023-02-18T10:21:47;95162.56;;;13.55;47.09
5879;BME280;2965;42.640;23.370;2023-02-18T10:24:46;95158.56;;;13.80;47.28
5879;BME280;2965;42.640;23.370;2023-02-18T10:27:21;95157.31;;;14.19;48.25
5879;BME280;2965;42.640;23.370;2023-02-18T10:29:48;95149.59;;;14.67;46.78
5879;BME280;2965;42.640;23.370;2023-02-18T10:32:26;95145.22;;;14.74;46.33
5879;BME280;2965;42.640;23.370;2023-02-18T10:40:34;95146.91;;;14.95;44.38
5879;BME280;2965;42.640;23.370;2023-02-18T10:43:37;95140.47;;;15.04;43.69
5879;BME280;2965;42.640;23.370;2023-02-18T10:51:17;95114.78;;;15.68;41.40
5879;BME280;2965;42.640;23.370;2023-02-18T10:53:45;95112.25;;;15.39;42.38
5879;BME280;2965;42.640;23.370;2023-02-18T10:59:10;95100.19;;;16.51;40.13
5879;BME280;2965;42.640;23.370;2023-02-18T11:01:37;95093.88;;;16.46;40.54
5879;BME280;2965;42.640;23.370;2023-02-18T11:06:48;95085.50;;;16.88;40.04
5879;BME280;2965;42.640;23.370;2023-02-18T11:09:48;95078.56;;;17.01;39.81
5879;BME280;2965;42.640;23.370;2023-02-18T11:12:28;95086.78;;;16.53;39.15
5879;BME280;2965;42.640;23.370;2023-02-18T11:15:17;95077.22;;;16.78;39.25
5879;BME280;2965;42.640;23.370;2023-02-18T11:17:47;95070.06;;;17.37;39.29
5879;BME280;2965;42.640;23.370;2023-02-18T11:22:48;95061.13;;;17.31;38.74
5879;BME280;2965;42.640;23.370;2023-02-18T11:25:25;95059.75;;;17.22;38.15
5879;BME280;2965;42.640;23.370;2023-02-18T11:27:58;95044.72;;;17.16;38.26
5879;BME280;2965;42.640;23.370;2023-02-18T11:30:46;95052.13;;;17.01;38.23
5879;BME280;2965;42.640;23.370;2023-02-18T11:33:29;95040.66;;;17.20;38.34
5879;BME280;2965;42.640;23.370;2023-02-18T11:35:57;95032.41;;;17.42;38.37
5879;BME280;2965;42.640;23.370;2023-02-18T11:38:35;95028.91;;;17.79;38.46
5879;BME280;2965;42.640;23.370;2023-02-18T11:41:13;95020.66;;;17.94;38.09
5879;BME280;2965;42.640;23.370;2023-02-18T11:43:45;95016.84;;;18.33;36.72
5879;BME280;2965;42.640;23.370;2023-02-18T11:46:17;95012.25;;;18.22;35.99
5879;BME280;2965;42.640;23.370;2023-02-18T11:48:43;95009.69;;;17.90;36.01
5879;BME280;2965;42.640;23.370;2023-02-18T11:51:24;95000.94;;;18.15;37.04
5879;BME280;2965;42.640;23.370;2023-02-18T11:54:40;94994.75;;;18.58;37.55
5879;BME280;2965;42.640;23.370;2023-02-18T11:57:09;94995.00;;;18.93;36.58
5879;BME280;2965;42.640;23.370;2023-02-18T11:59:35;94984.69;;;18.85;36.25
5879;BME280;2965;42.640;23.370;2023-02-18T12:05:00;94985.00;;;19.67;34.66
5879;BME280;2965;42.640;23.370;2023-02-18T12:10:25;94966.22;;;19.80;34.06
5879;BME280;2965;42.640;23.370;2023-02-18T12:13:06;94964.50;;;19.98;33.45
5879;BME280;2965;42.640;23.370;2023-02-18T12:15:52;94953.59;;;20.58;32.47
5879;BME280;2965;42.640;23.370;2023-02-18T12:26:28;94947.75;;;20.32;33.06
5879;BME280;2965;42.640;23.370;2023-02-18T12:39:28;94924.84;;;19.49;33.16
5879;BME280;2965;42.640;23.370;2023-02-18T12:44:44;94916.38;;;19.17;34.64
5879;BME280;2965;42.640;23.370;2023-02-18T13:14:46;94920.91;;;19.40;35.34
5879;BME280;2965;42.640;23.370;2023-02-18T13:17:15;94919.97;;;18.93;35.42
5879;BME280;2965;42.640;23.370;2023-02-18T13:19:50;94902.66;;;19.20;34.80
5879;BME280;2965;42.640;23.370;2023-02-18T13:22:19;94907.88;;;18.97;34.14
5879;BME280;2965;42.640;23.370;2023-02-18T13:24:47;94901.69;;;19.03;34.18
5879;BME280;2965;42.640;23.370;2023-02-18T13:30:57;94903.53;;;18.54;35.30
5879;BME280;2965;42.640;23.370;2023-02-18T13:36:03;94918.63;;;17.98;35.39
5879;BME280;2965;42.640;23.370;2023-02-18T13:41:20;94907.84;;;17.50;35.71
5879;BME280;2965;42.640;23.370;2023-02-18T13:43:47;94903.88;;;17.40;36.94
5879;BME280;2965;42.640;23.370;2023-02-18T13:48:45;94902.38;;;17.20;36.61
5879;BME280;2965;42.640;23.370;2023-02-18T13:51:37;94893.31;;;17.09;36.55
5879;BME280;2965;42.640;23.370;2023-02-18T13:54:05;94894.81;;;16.98;38.34
5879;BME280;2965;42.640;23.370;2023-02-18T13:56:39;94896.97;;;16.76;39.22
5879;BME280;2965;42.640;23.370;2023-02-18T13:59:19;94893.63;;;16.56;40.25
5879;BME280;2965;42.640;23.370;2023-02-18T14:01:48;94897.88;;;16.50;40.17
5879;BME280;2965;42.640;23.370;2023-02-18T14:09:50;94891.91;;;16.23;40.55
5879;BME280;2965;42.640;23.370;2023-02-18T14:20:44;94894.66;;;15.83;41.65
5879;BME280;2965;42.640;23.370;2023-02-18T14:25:52;94905.84;;;15.52;42.31
5879;BME280;2965;42.640;23.370;2023-02-18T14:33:51;94899.38;;;15.28;42.82
5879;BME280;2965;42.640;23.370;2023-02-18T14:36:33;94906.25;;;15.16;42.85
5879;BME280;2965;42.640;23.370;2023-02-18T14:42:04;94913.09;;;14.91;43.96
5879;BME280;2965;42.640;23.370;2023-02-18T14:50:02;94911.91;;;15.26;43.15
5879;BME280;2965;42.640;23.370;2023-02-18T14:52:31;94909.09;;;15.34;43.53
5879;BME280;2965;42.640;23.370;2023-02-18T14:55:00;94901.78;;;15.63;42.72
5879;BME280;2965;42.640;23.370;2023-02-18T14:57:32;94897.75;;;15.67;42.14
5879;BME280;2965;42.640;23.370;2023-02-18T14:59:59;94898.13;;;15.77;42.60
5879;BME280;2965;42.640;23.370;2023-02-18T15:02:27;94898.50;;;15.87;42.17
5879;BME280;2965;42.640;23.370;2023-02-18T15:05:10;94884.75;;;15.72;42.04
5879;BME280;2965;42.640;23.370;2023-02-18T15:07:36;94899.34;;;15.35;43.56
5879;BME280;2965;42.640;23.370;2023-02-18T15:10:02;94897.31;;;15.17;42.54
5879;BME280;2965;42.640;23.370;2023-02-18T15:12:27;94893.25;;;15.08;43.74
5879;BME280;2965;42.640;23.370;2023-02-18T15:14:56;94903.22;;;15.06;44.05
5879;BME280;2965;42.640;23.370;2023-02-18T15:17:25;94899.34;;;14.88;43.80
5879;BME280;2965;42.640;23.370;2023-02-18T15:19:54;94894.44;;;14.66;44.09
5879;BME280;2965;42.640;23.370;2023-02-18T15:22:23;94896.00;;;14.60;45.30
5879;BME280;2965;42.640;23.370;2023-02-18T15:24:52;94893.56;;;14.52;44.79
5879;BME280;2965;42.640;23.370;2023-02-18T15:27:24;94896.84;;;14.19;45.82
5879;BME280;2965;42.640;23.370;2023-02-18T15:29:56;94885.31;;;14.20;45.80
5879;BME280;2965;42.640;23.370;2023-02-18T15:32:25;94886.28;;;14.06;46.56
5879;BME280;2965;42.640;23.370;2023-02-18T15:35:14;94883.97;;;13.89;47.74
5879;BME280;2965;42.640;23.370;2023-02-18T15:37:43;94868.16;;;13.83;46.77
5879;BME280;2965;42.640;23.370;2023-02-18T15:40:14;94870.72;;;13.70;47.75
5879;BME280;2965;42.640;23.370;2023-02-18T15:42:39;94877.00;;;13.69;47.32
5879;BME280;2965;42.640;23.370;2023-02-18T15:45:17;94874.09;;;13.57;47.47
5879;BME280;2965;42.640;23.370;2023-02-18T15:47:46;94876.09;;;13.55;47.72
5879;BME280;2965;42.640;23.370;2023-02-18T15:50:21;94871.22;;;13.52;48.45
5879;BME280;2965;42.640;23.370;2023-02-18T15:52:49;94863.53;;;13.50;48.42
5879;BME280;2965;42.640;23.370;2023-02-18T15:55:32;94867.88;;;13.36;48.31
5879;BME280;2965;42.640;23.370;2023-02-18T15:58:04;94860.97;;;13.29;48.72
5879;BME280;2965;42.640;23.370;2023-02-18T16:00:46;94864.44;;;13.14;49.28
5879;BME280;2965;42.640;23.370;2023-02-18T16:03:17;94857.53;;;13.28;48.48
5879;BME280;2965;42.640;23.370;2023-02-18T16:05:44;94857.00;;;13.18;49.74
5879;BME280;2965;42.640;23.370;2023-02-18T16:08:14;94858.91;;;13.24;49.17
5879;BME280;2965;42.640;23.370;2023-02-18T16:13:12;94866.69;;;13.18;49.67
5879;BME280;2965;42.640;23.370;2023-02-18T16:15:41;94858.38;;;13.14;49.97
5879;BME280;2965;42.640;23.370;2023-02-18T16:18:30;94873.53;;;13.12;49.82
5879;BME280;2965;42.640;23.370;2023-02-18T16:23:52;94863.16;;;13.04;50.08
5879;BME280;2965;42.640;23.370;2023-02-18T16:26:40;94875.00;;;12.93;50.93
5879;BME280;2965;42.640;23.370;2023-02-18T16:29:14;94864.50;;;12.93;50.71
5879;BME280;2965;42.640;23.370;2023-02-18T16:34:13;94880.41;;;12.92;51.12
5879;BME280;2965;42.640;23.370;2023-02-18T16:36:39;94868.31;;;12.91;51.10
5879;BME280;2965;42.640;23.370;2023-02-18T16:39:25;94874.19;;;12.71;51.77
5879;BME280;2965;42.640;23.370;2023-02-18T16:41:51;94884.69;;;12.71;51.45
5879;BME280;2965;42.640;23.370;2023-02-18T16:44:17;94885.56;;;12.78;51.84
5879;BME280;2965;42.640;23.370;2023-02-18T16:46:42;94885.56;;;12.78;51.65
5879;BME280;2965;42.640;23.370;2023-02-18T16:49:11;94887.19;;;12.79;51.74
5879;BME280;2965;42.640;23.370;2023-02-18T16:51:37;94883.34;;;12.60;52.47
5879;BME280;2965;42.640;23.370;2023-02-18T16:54:03;94880.78;;;12.46;53.02
5879;BME280;2965;42.640;23.370;2023-02-18T16:56:30;94870.03;;;12.41;53.09
5879;BME280;2965;42.640;23.370;2023-02-18T16:58:56;94892.03;;;12.40;53.48
5879;BME280;2965;42.640;23.370;2023-02-18T17:01:23;94884.16;;;12.40;53.40
5879;BME280;2965;42.640;23.370;2023-02-18T17:03:50;94880.28;;;12.35;53.40
5879;BME280;2965;42.640;23.370;2023-02-18T17:06:15;94885.75;;;12.19;53.56
5879;BME280;2965;42.640;23.370;2023-02-18T17:08:41;94876.88;;;12.20;54.39
5879;BME280;2965;42.640;23.370;2023-02-18T17:11:15;94894.81;;;12.02;55.26
5879;BME280;2965;42.640;23.370;2023-02-18T17:13:42;94884.06;;;11.97;54.65
5879;BME280;2965;42.640;23.370;2023-02-18T17:18:38;94886.75;;;12.03;54.72
5879;BME280;2965;42.640;23.370;2023-02-18T17:21:03;94877.81;;;11.98;55.79
5879;BME280;2965;42.640;23.370;2023-02-18T17:23:29;94888.03;;;11.78;57.42
5879;BME280;2965;42.640;23.370;2023-02-18T17:25:54;94891.91;;;11.67;56.30
5879;BME280;2965;42.640;23.370;2023-02-18T17:28:19;94890.16;;;11.59;57.92
5879;BME280;2965;42.640;23.370;2023-02-18T17:30:48;94894.06;;;11.49;58.72
5879;BME280;2965;42.640;23.370;2023-02-18T17:33:17;94887.34;;;11.17;60.81
5879;BME280;2965;42.640;23.370;2023-02-18T17:35:43;94886.59;;;11.08;60.57
5879;BME280;2965;42.640;23.370;2023-02-18T17:38:13;94882.03;;;11.25;59.76
5879;BME280;2965;42.640;23.370;2023-02-18T17:40:40;94880.63;;;11.14;60.84
5879;BME280;2965;42.640;23.370;2023-02-18T17:43:08;94886.34;;;11.18;60.11
5879;BME280;2965;42.640;23.370;2023-02-18T17:45:41;94877.94;;;11.22;60.20
5879;BME280;2965;42.640;23.370;2023-02-18T17:48:07;94888.41;;;11.22;61.85
5879;BME280;2965;42.640;23.370;2023-02-18T17:50:33;94890.75;;;11.17;61.53
5879;BME280;2965;42.640;23.370;2023-02-18T17:52:58;94879.75;;;11.07;62.18
5879;BME280;2965;42.640;23.370;2023-02-18T17:55:29;94878.69;;;10.93;63.44
5879;BME280;2965;42.640;23.370;2023-02-18T17:57:56;94877.66;;;10.79;63.84
5879;BME280;2965;42.640;23.370;2023-02-18T18:00:34;94876.03;;;10.78;64.28
5879;BME280;2965;42.640;23.370;2023-02-18T18:03:00;94872.84;;;10.68;64.94
5879;BME280;2965;42.640;23.370;2023-02-18T18:05:28;94875.75;;;10.73;64.42
5879;BME280;2965;42.640;23.370;2023-02-18T18:07:54;94871.84;;;10.69;64.51
5879;BME280;2965;42.640;23.370;2023-02-18T18:10:22;94875.47;;;10.68;64.52
5879;BME280;2965;42.640;23.370;2023-02-18T18:12:52;94868.25;;;10.70;64.56
5879;BME280;2965;42.640;23.370;2023-02-18T18:15:19;94865.81;;;10.69;64.03
5879;BME280;2965;42.640;23.370;2023-02-18T18:17:45;94870.81;;;10.78;64.76
5879;BME280;2965;42.640;23.370;2023-02-18T18:20:11;94866.03;;;10.82;64.22
5879;BME280;2965;42.640;23.370;2023-02-18T18:22:36;94876.03;;;10.78;63.85
5879;BME280;2965;42.640;23.370;2023-02-18T18:25:14;94866.44;;;10.71;66.39
5879;BME280;2965;42.640;23.370;2023-02-18T18:27:41;94865.09;;;10.52;65.84
5879;BME280;2965;42.640;23.370;2023-02-18T18:30:07;94875.28;;;10.47;66.05
5879;BME280;2965;42.640;23.370;2023-02-18T18:32:33;94868.53;;;10.21;67.37
5879;BME280;2965;42.640;23.370;2023-02-18T18:34:58;94880.75;;;9.98;68.12
5879;BME280;2965;42.640;23.370;2023-02-18T18:37:23;94863.66;;;10.18;68.09
5879;BME280;2965;42.640;23.370;2023-02-18T18:39:49;94875.59;;;10.13;68.20
5879;BME280;2965;42.640;23.370;2023-02-18T18:42:14;94872.47;;;10.17;67.05
5879;BME280;2965;42.640;23.370;2023-02-18T18:44:39;94872.16;;;10.20;67.06
5879;BME280;2965;42.640;23.370;2023-02-18T18:47:05;94870.53;;;10.19;68.22
5879;BME280;2965;42.640;23.370;2023-02-18T18:49:30;94868.75;;;10.11;67.90
5879;BME280;2965;42.640;23.370;2023-02-18T18:51:55;94878.72;;;10.08;68.03
5879;BME280;2965;42.640;23.370;2023-02-18T18:54:21;94871.97;;;9.82;70.33
5879;BME280;2965;42.640;23.370;2023-02-18T18:56:46;94864.84;;;9.76;70.31
5879;BME280;2965;42.640;23.370;2023-02-18T18:59:14;94865.91;;;9.51;70.93
5879;BME280;2965;42.640;23.370;2023-02-18T19:01:39;94854.53;;;9.27;72.25
5879;BME280;2965;42.640;23.370;2023-02-18T19:04:05;94862.19;;;9.29;72.97
5879;BME280;2965;42.640;23.370;2023-02-18T19:06:30;94853.53;;;9.37;73.63
5879;BME280;2965;42.640;23.370;2023-02-18T19:08:56;94854.16;;;9.47;72.34
5879;BME280;2965;42.640;23.370;2023-02-18T19:11:21;94862.69;;;9.32;73.49
5879;BME280;2965;42.640;23.370;2023-02-18T19:13:47;94846.91;;;9.09;73.22
5879;BME280;2965;42.640;23.370;2023-02-18T19:18:38;94849.03;;;8.98;76.50
5879;BME280;2965;42.640;23.370;2023-02-18T19:21:03;94842.53;;;9.02;75.93
5879;BME280;2965;42.640;23.370;2023-02-18T19:23:30;94856.84;;;9.14;75.46
5879;BME280;2965;42.640;23.370;2023-02-18T19:25:56;94851.63;;;9.22;74.92
5879;BME280;2965;42.640;23.370;2023-02-18T19:28:21;94856.53;;;9.25;75.09
5879;BME280;2965;42.640;23.370;2023-02-18T19:30:46;94859.16;;;9.01;76.12
5879;BME280;2965;42.640;23.370;2023-02-18T19:33:12;94863.06;;;9.05;75.85
5879;BME280;2965;42.640;23.370;2023-02-18T19:35:39;94867.31;;;9.06;76.58
5879;BME280;2965;42.640;23.370;2023-02-18T19:38:09;94872.69;;;9.13;75.81
5879;BME280;2965;42.640;23.370;2023-02-18T19:40:35;94867.31;;;8.98;76.57
5879;BME280;2965;42.640;23.370;2023-02-18T19:43:00;94881.66;;;9.02;76.47
5879;BME280;2965;42.640;23.370;2023-02-18T19:45:26;94875.31;;;9.04;76.47
5879;BME280;2965;42.640;23.370;2023-02-18T19:47:56;94884.25;;;9.10;76.09
5879;BME280;2965;42.640;23.370;2023-02-18T19:50:24;94873.81;;;9.10;75.97
5879;BME280;2965;42.640;23.370;2023-02-18T19:52:53;94907.44;;;8.97;75.84
5879;BME280;2965;42.640;23.370;2023-02-18T19:55:20;94877.91;;;8.80;76.39
5879;BME280;2965;42.640;23.370;2023-02-18T19:57:45;94875.47;;;8.62;78.08
5879;BME280;2965;42.640;23.370;2023-02-18T20:00:13;94883.31;;;8.78;77.77
5879;BME280;2965;42.640;23.370;2023-02-18T20:02:39;94875.00;;;8.91;76.40
5879;BME280;2965;42.640;23.370;2023-02-18T20:05:06;94861.94;;;8.83;77.08
5879;BME280;2965;42.640;23.370;2023-02-18T20:07:32;94881.66;;;9.18;100.00
5879;BME280;2965;42.640;23.370;2023-02-18T20:09:58;94862.66;;;9.49;90.84
5879;BME280;2965;42.640;23.370;2023-02-18T20:12:23;94861.69;;;9.33;82.58
5879;BME280;2965;42.640;23.370;2023-02-18T20:14:49;94885.91;;;8.95;81.71
5879;BME280;2965;42.640;23.370;2023-02-18T20:17:15;94867.66;;;8.87;82.38
5879;BME280;2965;42.640;23.370;2023-02-18T20:19:41;94872.88;;;8.87;82.84
5879;BME280;2965;42.640;23.370;2023-02-18T20:22:06;94848.09;;;8.91;82.12
5879;BME280;2965;42.640;23.370;2023-02-18T20:24:34;94889.81;;;8.58;83.43
5879;BME280;2965;42.640;23.370;2023-02-18T20:27:00;94870.94;;;8.72;83.03
5879;BME280;2965;42.640;23.370;2023-02-18T20:29:25;94886.09;;;8.77;82.20
5879;BME280;2965;42.640;23.370;2023-02-18T20:31:52;94874.19;;;8.82;81.82